Aviation Digital Data Service (ADDS)

Output produced by TAFs form (0315 UTC 26 February 2017)
found at http://www.aviationweather.gov/adds/tafs/
 
KPSF 260219Z 2602/2624 29010KT 6SM -SNRA BR SCT007 OVC013 
     TEMPO 2602/2604 2SM -SN BR BKN007 OVC012 
     FM260400 29012KT P6SM VCSH OVC015 
     FM260900 29016G26KT P6SM OVC035 
     FM261300 29018G31KT P6SM BKN045